Time;durP1;ratioP1;P1;durP2;ratioP2;P2;SDS_P1;SDS_P2;PMS_P1;PMS_P2;Temp;Humidity;BMP_temperature;BMP_pressure;BME280_temperature;BME280_humidity;BME280_pressure;Samples;Min_cycle;Max_cycle;Signal;HPM_P1;HPM_P2
2023/08/30 00:00:29;;;;;;;5.20;4.65;;;16.30;99.90;;;;;;5090970;28;20028;-49
2023/08/30 00:03:15;;;;;;;4.32;3.92;;;16.30;99.90;;;;;;5076845;28;20031;-50
2023/08/30 00:06:05;;;;;;;5.20;4.50;;;16.30;99.90;;;;;;5091914;28;20028;-51
2023/08/30 00:08:51;;;;;;;4.38;3.95;;;16.30;99.90;;;;;;5092715;28;20025;-50
2023/08/30 00:11:37;;;;;;;6.90;4.63;;;16.30;99.90;;;;;;5093874;28;20412;-54
2023/08/30 00:14:23;;;;;;;4.85;4.20;;;16.30;99.90;;;;;;5077781;28;20122;-54
2023/08/30 00:17:09;;;;;;;6.25;4.10;;;16.20;99.90;;;;;;5090900;28;20150;-51
2023/08/30 00:19:55;;;;;;;5.32;4.82;;;16.20;99.90;;;;;;5091811;28;20085;-51
2023/08/30 00:22:41;;;;;;;6.28;4.50;;;16.20;99.90;;;;;;5091673;28;20067;-50
2023/08/30 00:25:27;;;;;;;5.40;4.55;;;16.20;99.90;;;;;;5092095;28;20027;-55
2023/08/30 00:28:13;;;;;;;6.32;4.40;;;16.10;99.90;;;;;;5091641;28;20039;-52
2023/08/30 00:30:59;;;;;;;5.78;5.07;;;16.10;99.90;;;;;;5091951;28;20071;-50
2023/08/30 00:33:45;;;;;;;5.43;4.38;;;16.10;99.90;;;;;;5091935;28;20405;-53
2023/08/30 00:36:31;;;;;;;5.28;4.05;;;16.00;99.90;;;;;;5093201;28;20032;-54
2023/08/30 00:39:17;;;;;;;5.88;4.55;;;16.00;99.90;;;;;;5093098;28;20074;-53
2023/08/30 00:42:05;;;;;;;6.15;4.47;;;16.00;99.90;;;;;;5090600;28;20063;-53
2023/08/30 00:44:51;;;;;;;6.43;5.32;;;15.90;99.90;;;;;;5091508;28;20054;-51
2023/08/30 00:47:37;;;;;;;7.47;4.72;;;15.80;99.90;;;;;;5091243;28;20024;-49
2023/08/30 00:50:24;;;;;;;7.68;4.80;;;15.70;99.90;;;;;;5091578;28;20111;-56
2023/08/30 00:53:11;;;;;;;5.78;4.72;;;15.50;99.90;;;;;;5090436;28;20032;-52
2023/08/30 00:55:57;;;;;;;7.35;5.15;;;15.60;99.90;;;;;;5091008;28;20039;-55
2023/08/30 00:58:43;;;;;;;5.68;4.50;;;15.60;99.90;;;;;;5090230;28;20028;-52
2023/08/30 01:01:29;;;;;;;6.13;5.03;;;15.60;99.90;;;;;;5075030;28;20111;-51
2023/08/30 01:04:15;;;;;;;7.43;5.00;;;15.60;99.90;;;;;;5090396;28;20406;-53
2023/08/30 01:07:01;;;;;;;5.80;5.18;;;15.60;99.90;;;;;;5091351;28;20020;-52
2023/08/30 01:09:47;;;;;;;6.15;5.35;;;15.60;99.90;;;;;;5094702;28;20028;-54
2023/08/30 01:12:48;;;;;;;7.63;4.85;;;15.60;99.90;;;;;;5094085;28;20172;-49
2023/08/30 01:15:35;;;;;;;5.53;4.72;;;15.60;99.90;;;;;;5094725;28;20024;-55
2023/08/30 01:18:25;;;;;;;5.72;4.30;;;15.70;99.90;;;;;;5092433;28;20515;-54
2023/08/30 01:21:18;;;;;;;5.60;4.63;;;15.70;99.90;;;;;;5093831;28;20024;-49
2023/08/30 01:24:09;;;;;;;5.38;4.40;;;15.60;99.90;;;;;;5093564;28;20099;-53
2023/08/30 01:27:16;;;;;;;5.30;4.75;;;15.60;99.90;;;;;;5092208;28;20020;-54
2023/08/30 01:30:05;;;;;;;8.07;4.65;;;15.60;99.90;;;;;;5093477;28;20043;-51
2023/08/30 01:32:51;;;;;;;6.05;4.97;;;15.60;99.90;;;;;;5092837;28;20032;-50
2023/08/30 01:35:40;;;;;;;6.63;5.18;;;15.60;99.90;;;;;;5093476;28;20024;-51
2023/08/30 01:38:28;;;;;;;6.47;4.38;;;15.50;99.90;;;;;;5076672;28;20432;-55
2023/08/30 01:41:15;;;;;;;5.10;4.60;;;15.50;99.90;;;;;;5093500;28;20032;-55
2023/08/30 01:44:03;;;;;;;6.93;5.57;;;15.60;99.90;;;;;;5093718;28;20024;-49
2023/08/30 01:46:49;;;;;;;7.00;4.78;;;15.60;99.90;;;;;;5093068;28;20020;-50
2023/08/30 01:49:37;;;;;;;7.18;5.25;;;15.50;99.90;;;;;;5093175;28;20024;-48
2023/08/30 01:52:24;;;;;;;8.48;5.60;;;15.50;99.90;;;;;;5092872;28;20023;-51
2023/08/30 01:55:13;;;;;;;8.35;5.70;;;15.60;99.90;;;;;;5093805;28;20740;-51
2023/08/30 01:57:59;;;;;;;6.65;5.47;;;15.50;99.90;;;;;;5092801;28;20056;-53
2023/08/30 02:00:45;;;;;;;10.02;5.78;;;15.50;99.90;;;;;;5092953;28;20400;-55
2023/08/30 02:03:31;;;;;;;12.93;10.65;;;15.40;99.90;;;;;;5093032;28;20024;-54
2023/08/30 02:06:44;;;;;;;26.98;20.42;;;15.50;99.90;;;;;;5093930;28;20158;-51
2023/08/30 02:09:48;;;;;;;15.70;13.20;;;15.50;99.90;;;;;;5093395;28;20119;-54
2023/08/30 02:12:46;;;;;;;8.10;6.85;;;15.50;99.90;;;;;;5094014;28;20069;-52
2023/08/30 02:15:35;;;;;;;6.88;5.65;;;15.50;99.90;;;;;;5092861;28;20065;-56
2023/08/30 02:18:21;;;;;;;7.22;5.35;;;15.50;99.90;;;;;;5091312;28;20101;-51
2023/08/30 02:21:07;;;;;;;9.27;5.00;;;15.40;99.90;;;;;;5077527;28;20443;-49
2023/08/30 02:23:53;;;;;;;7.22;5.15;;;15.30;99.90;;;;;;5093082;28;20044;-56
2023/08/30 02:26:39;;;;;;;8.70;5.28;;;15.30;99.90;;;;;;5091599;28;20032;-52
2023/08/30 02:29:25;;;;;;;6.75;5.65;;;15.30;99.90;;;;;;5078362;28;20020;-54
2023/08/30 02:32:11;;;;;;;8.57;5.28;;;15.30;99.90;;;;;;5092869;28;20097;-52
2023/08/30 02:34:57;;;;;;;7.15;5.15;;;15.30;99.90;;;;;;5092621;28;20078;-52
2023/08/30 02:37:43;;;;;;;13.98;5.95;;;15.20;99.90;;;;;;5092266;28;20103;-53
2023/08/30 02:40:29;;;;;;;7.53;5.32;;;15.20;99.90;;;;;;5092073;28;20051;-52
2023/08/30 02:43:17;;;;;;;6.10;5.50;;;15.20;99.90;;;;;;5092190;28;20044;-49
2023/08/30 02:46:05;;;;;;;6.88;5.63;;;15.20;99.90;;;;;;5092310;28;20024;-52
2023/08/30 02:48:51;;;;;;;6.35;5.75;;;15.10;99.90;;;;;;5092961;28;20036;-55
2023/08/30 02:51:37;;;;;;;10.63;5.82;;;15.10;99.90;;;;;;5077234;28;20496;-51
2023/08/30 02:54:23;;;;;;;6.80;5.78;;;15.10;99.90;;;;;;5078233;28;20468;-53
2023/08/30 02:57:09;;;;;;;8.98;6.57;;;15.00;99.90;;;;;;5079121;28;20024;-59
2023/08/30 02:59:55;;;;;;;7.20;6.18;;;14.70;99.90;;;;;;5083051;28;20033;-56
2023/08/30 03:02:40;;;;;;;8.45;6.57;;;14.60;99.90;;;;;;5085418;28;20036;-50
2023/08/30 03:05:26;;;;;;;7.70;6.32;;;14.50;99.90;;;;;;5083290;28;20020;-52
2023/08/30 03:08:12;;;;;;;9.38;6.80;;;14.50;99.90;;;;;;5081703;28;20493;-51
2023/08/30 03:11:12;;;;;;;7.85;6.75;;;14.30;99.90;;;;;;5076607;28;20043;-49
2023/08/30 03:13:58;;;;;;;8.07;7.28;;;14.10;99.90;;;;;;5092756;28;20056;-48
2023/08/30 03:16:46;;;;;;;7.10;6.40;;;14.10;99.90;;;;;;5076180;28;20031;-49
2023/08/30 03:19:32;;;;;;;7.68;6.93;;;14.20;99.90;;;;;;5077866;28;20054;-49
2023/08/30 03:22:18;;;;;;;8.32;7.05;;;14.20;99.90;;;;;;5093616;28;20033;-51
2023/08/30 03:25:05;;;;;;;8.38;6.65;;;14.20;99.90;;;;;;5092682;28;20084;-52
2023/08/30 03:27:51;;;;;;;8.02;7.22;;;14.20;99.90;;;;;;5091088;28;20119;-51
2023/08/30 03:30:37;;;;;;;7.20;6.47;;;14.30;99.90;;;;;;5092022;28;20036;-48
2023/08/30 03:33:23;;;;;;;7.95;6.82;;;14.30;99.90;;;;;;5091469;28;20028;-47
2023/08/30 03:36:13;;;;;;;9.05;6.18;;;14.40;99.90;;;;;;5092419;28;20028;-51
2023/08/30 03:38:59;;;;;;;9.30;6.72;;;14.50;99.90;;;;;;5091218;28;20158;-54
2023/08/30 03:41:45;;;;;;;7.75;6.72;;;14.50;99.90;;;;;;5091344;28;20420;-46
2023/08/30 03:44:31;;;;;;;9.45;7.28;;;14.50;99.90;;;;;;5091035;28;20369;-45
2023/08/30 03:47:17;;;;;;;8.65;7.32;;;14.50;99.90;;;;;;5076781;28;20484;-51
2023/08/30 03:50:03;;;;;;;8.65;7.20;;;14.50;99.90;;;;;;5092361;28;20054;-47
2023/08/30 03:52:49;;;;;;;11.55;7.13;;;14.50;99.90;;;;;;5077017;28;20027;-49
2023/08/30 03:55:35;;;;;;;8.35;6.43;;;14.50;99.90;;;;;;5091178;28;20039;-46
2023/08/30 03:58:21;;;;;;;9.23;7.28;;;14.50;99.90;;;;;;5092638;28;20032;-49
2023/08/30 04:01:07;;;;;;;9.05;7.18;;;14.50;99.90;;;;;;5092096;28;20043;-50
2023/08/30 04:03:53;;;;;;;8.48;7.68;;;14.50;99.90;;;;;;5092474;28;20020;-47
2023/08/30 04:06:40;;;;;;;10.40;7.80;;;14.40;99.90;;;;;;5077458;28;20400;-48
2023/08/30 04:09:26;;;;;;;8.27;7.47;;;14.40;99.90;;;;;;5091896;28;20075;-51
2023/08/30 04:12:11;;;;;;;9.35;7.65;;;14.40;99.90;;;;;;5090390;28;20024;-53
2023/08/30 04:14:57;;;;;;;8.77;7.90;;;14.30;99.90;;;;;;5091778;28;20484;-52
2023/08/30 04:17:43;;;;;;;9.07;8.18;;;14.30;99.90;;;;;;5091559;28;20024;-51
2023/08/30 04:20:30;;;;;;;9.18;7.82;;;14.30;99.90;;;;;;5091536;28;20031;-53
2023/08/30 04:23:16;;;;;;;9.77;8.15;;;14.30;99.90;;;;;;5091841;28;20046;-54
2023/08/30 04:26:02;;;;;;;10.13;7.93;;;14.20;99.90;;;;;;5077089;28;20025;-55
2023/08/30 04:28:48;;;;;;;10.40;8.52;;;14.20;99.90;;;;;;5094939;28;20024;-51
2023/08/30 04:31:34;;;;;;;8.98;8.18;;;14.30;99.90;;;;;;5091506;28;20036;-50
2023/08/30 04:34:20;;;;;;;10.27;8.20;;;14.30;99.90;;;;;;5075202;28;20056;-55
2023/08/30 04:37:06;;;;;;;8.70;7.65;;;14.20;99.90;;;;;;5091062;28;20107;-52
2023/08/30 04:39:52;;;;;;;9.40;8.48;;;14.20;99.90;;;;;;5090478;28;20526;-50
2023/08/30 04:42:39;;;;;;;9.40;8.50;;;14.20;99.90;;;;;;5093870;28;20056;-52
2023/08/30 04:45:25;;;;;;;10.70;8.90;;;14.20;99.90;;;;;;5095431;28;20066;-50
2023/08/30 04:48:11;;;;;;;11.45;9.00;;;14.20;99.90;;;;;;5065738;28;20016;-51
2023/08/30 04:51:04;;;;;;;9.88;8.95;;;14.20;99.90;;;;;;5095363;28;20027;-50
2023/08/30 04:53:50;;;;;;;12.93;10.25;;;14.30;99.90;;;;;;5095362;28;20040;-51
2023/08/30 04:56:36;;;;;;;12.30;11.10;;;14.30;99.90;;;;;;5093819;28;20111;-53
2023/08/30 04:59:22;;;;;;;9.57;8.75;;;14.30;99.90;;;;;;5094455;28;20032;-55
2023/08/30 05:02:08;;;;;;;10.48;9.40;;;14.30;99.90;;;;;;5094324;28;20043;-54
2023/08/30 05:04:54;;;;;;;11.95;9.70;;;14.20;99.90;;;;;;5094257;28;20099;-53
2023/08/30 05:07:40;;;;;;;10.70;9.60;;;14.30;99.90;;;;;;5093735;28;20390;-53
2023/08/30 05:10:26;;;;;;;12.15;9.88;;;14.20;99.90;;;;;;5094064;28;20032;-51
2023/08/30 05:13:12;;;;;;;16.08;12.77;;;14.20;99.90;;;;;;5080044;28;20028;-51
2023/08/30 05:15:58;;;;;;;11.15;9.98;;;14.10;99.90;;;;;;5067004;28;20056;-55
2023/08/30 05:18:44;;;;;;;11.82;10.05;;;14.20;99.90;;;;;;5077716;28;20035;-51
2023/08/30 05:21:30;;;;;;;11.73;10.23;;;14.20;99.90;;;;;;5093765;28;20024;-51
2023/08/30 05:24:15;;;;;;;12.18;9.77;;;14.20;99.90;;;;;;5094353;28;20137;-48
2023/08/30 05:27:02;;;;;;;13.68;9.73;;;14.20;99.90;;;;;;5079422;28;20021;-54
2023/08/30 05:29:48;;;;;;;11.40;9.98;;;14.20;99.90;;;;;;5065023;28;20618;-52
2023/08/30 05:32:34;;;;;;;14.32;10.75;;;14.20;99.90;;;;;;5079642;28;20034;-55
2023/08/30 05:35:20;;;;;;;14.88;11.27;;;14.10;99.90;;;;;;5078413;28;20027;-55
2023/08/30 05:38:06;;;;;;;18.38;11.32;;;14.20;99.90;;;;;;5093465;28;20024;-53
2023/08/30 05:40:52;;;;;;;12.48;11.10;;;14.30;99.90;;;;;;5093497;28;20565;-48
2023/08/30 05:43:38;;;;;;;10.93;9.90;;;14.30;99.90;;;;;;5093576;28;20074;-50
2023/08/30 05:46:24;;;;;;;11.82;10.73;;;14.40;99.90;;;;;;5093598;28;20393;-51
2023/08/30 05:49:11;;;;;;;12.85;10.30;;;14.40;99.90;;;;;;5093940;28;20024;-51
2023/08/30 05:51:57;;;;;;;10.85;9.75;;;14.60;99.90;;;;;;5093942;28;20028;-54
2023/08/30 05:54:42;;;;;;;12.43;11.10;;;14.70;99.90;;;;;;5079823;28;20032;-55
2023/08/30 05:57:33;;;;;;;16.77;11.00;;;14.70;99.90;;;;;;5092353;28;20113;-49
2023/08/30 06:00:19;;;;;;;12.02;9.52;;;14.70;99.90;;;;;;5093198;28;20060;-50
2023/08/30 06:03:06;;;;;;;13.02;9.68;;;14.90;99.90;;;;;;5094148;28;20074;-54
2023/08/30 06:05:52;;;;;;;11.02;9.48;;;14.80;99.90;;;;;;5077771;28;20056;-51
2023/08/30 06:08:38;;;;;;;10.85;9.75;;;14.80;99.90;;;;;;5093324;28;20389;-51
2023/08/30 06:11:24;;;;;;;12.77;9.70;;;15.00;99.90;;;;;;5092538;28;20081;-55
2023/08/30 06:14:10;;;;;;;12.82;10.10;;;15.00;99.90;;;;;;5093910;28;20078;-54
2023/08/30 06:16:56;;;;;;;11.82;10.63;;;15.10;99.90;;;;;;5078499;28;20032;-55
2023/08/30 06:19:42;;;;;;;12.20;10.75;;;15.10;99.90;;;;;;5092369;28;20024;-55
2023/08/30 06:22:28;;;;;;;11.32;9.32;;;15.00;99.90;;;;;;5092377;28;20024;-52
2023/08/30 06:25:14;;;;;;;16.48;11.13;;;15.10;99.90;;;;;;5093824;28;20024;-53
2023/08/30 06:28:02;;;;;;;12.35;10.10;;;15.00;99.90;;;;;;5093874;28;20028;-54
2023/08/30 06:30:48;;;;;;;11.35;10.23;;;14.90;99.90;;;;;;5094033;28;20500;-51
2023/08/30 06:33:35;;;;;;;10.88;9.88;;;15.00;99.90;;;;;;5091527;28;20024;-52
2023/08/30 06:36:23;;;;;;;10.38;9.25;;;15.20;99.90;;;;;;5091850;28;20055;-50
2023/08/30 06:39:09;;;;;;;11.20;10.18;;;15.40;99.90;;;;;;5077856;28;20055;-51
2023/08/30 06:41:54;;;;;;;10.82;9.35;;;15.60;99.90;;;;;;5092177;28;20027;-55
2023/08/30 06:44:40;;;;;;;9.70;8.77;;;15.70;99.90;;;;;;5093350;28;20119;-53
2023/08/30 06:47:26;;;;;;;11.20;10.00;;;15.90;99.90;;;;;;5078011;28;20024;-54
2023/08/30 06:50:12;;;;;;;12.65;9.50;;;16.10;99.90;;;;;;5091924;28;20032;-53
2023/08/30 06:52:58;;;;;;;9.50;8.00;;;16.20;99.90;;;;;;5093582;28;20077;-50
2023/08/30 06:55:44;;;;;;;10.43;9.27;;;16.30;99.90;;;;;;5094688;27;20098;-50
2023/08/30 06:58:30;;;;;;;11.30;9.00;;;16.30;99.90;;;;;;5094763;28;20454;-52
2023/08/30 07:01:16;;;;;;;13.70;9.25;;;16.40;99.90;;;;;;5077794;28;20035;-55
2023/08/30 07:04:02;;;;;;;12.40;10.05;;;16.50;99.90;;;;;;5093519;28;20060;-55
2023/08/30 07:06:48;;;;;;;11.52;9.13;;;16.30;99.90;;;;;;5091736;28;20058;-52
2023/08/30 07:09:34;;;;;;;10.48;8.38;;;16.40;99.90;;;;;;5092940;28;20024;-53
2023/08/30 07:12:20;;;;;;;10.05;8.98;;;16.60;99.90;;;;;;5076856;28;20024;-50
2023/08/30 07:15:06;;;;;;;10.00;8.15;;;16.60;99.90;;;;;;5092645;28;20040;-51
2023/08/30 07:17:52;;;;;;;13.52;8.65;;;16.60;99.90;;;;;;5091251;28;20098;-54
2023/08/30 07:20:41;;;;;;;9.60;8.27;;;16.90;99.90;;;;;;5093797;27;20039;-52
2023/08/30 07:23:27;;;;;;;8.93;8.07;;;17.10;99.90;;;;;;5092568;28;20034;-48
2023/08/30 07:26:13;;;;;;;12.75;8.50;;;17.20;99.90;;;;;;5092425;28;20036;-49
2023/08/30 07:28:59;;;;;;;13.40;7.55;;;17.50;99.90;;;;;;5091707;28;20020;-53
2023/08/30 07:31:45;;;;;;;13.55;7.45;;;17.50;99.90;;;;;;5092324;28;20501;-53
2023/08/30 07:34:31;;;;;;;10.80;8.23;;;17.60;99.90;;;;;;5090975;28;20828;-55
2023/08/30 07:37:21;;;;;;;8.90;8.00;;;17.50;99.90;;;;;;5092230;28;20039;-55
2023/08/30 07:40:08;;;;;;;11.25;7.90;;;17.40;99.90;;;;;;5092547;28;20153;-50
2023/08/30 07:42:54;;;;;;;8.43;6.75;;;17.20;99.90;;;;;;5091604;28;20077;-47
2023/08/30 07:45:40;;;;;;;10.50;7.00;;;17.40;99.90;;;;;;5091326;28;20020;-54
2023/08/30 07:48:26;;;;;;;9.68;7.68;;;17.70;99.90;;;;;;5093455;27;20026;-54
2023/08/30 07:51:12;;;;;;;9.93;7.13;;;17.90;99.90;;;;;;5092286;28;20028;-54
2023/08/30 07:53:58;;;;;;;10.90;7.70;;;18.00;99.90;;;;;;5092361;28;20028;-51
2023/08/30 07:56:44;;;;;;;9.20;7.32;;;17.90;99.90;;;;;;5090858;28;20028;-55
2023/08/30 07:59:32;;;;;;;10.05;7.07;;;18.10;99.90;;;;;;5092169;28;20032;-51
2023/08/30 08:02:18;;;;;;;10.35;7.60;;;18.30;99.90;;;;;;5092043;28;20398;-51
2023/08/30 08:05:04;;;;;;;10.02;7.47;;;18.40;99.90;;;;;;5077474;28;20028;-55
2023/08/30 08:07:52;;;;;;;8.35;7.20;;;18.50;99.90;;;;;;5090979;28;20107;-54
2023/08/30 08:10:38;;;;;;;9.10;7.15;;;18.60;99.90;;;;;;5093042;28;20028;-50
2023/08/30 08:13:24;;;;;;;9.63;6.53;;;18.60;99.90;;;;;;5091787;28;20028;-54
2023/08/30 08:16:10;;;;;;;10.18;6.80;;;18.50;99.90;;;;;;5090496;28;20043;-54
2023/08/30 08:18:59;;;;;;;6.55;5.95;;;18.60;99.90;;;;;;5092560;28;20388;-56
2023/08/30 08:21:45;;;;;;;7.18;6.47;;;18.60;99.90;;;;;;5076395;28;20530;-50
2023/08/30 08:24:31;;;;;;;7.88;6.63;;;18.70;99.90;;;;;;5076894;28;20085;-55
2023/08/30 08:27:17;;;;;;;10.55;5.88;;;18.80;99.90;;;;;;5090580;28;20030;-50
2023/08/30 08:30:07;;;;;;;7.47;4.97;;;18.90;99.90;;;;;;5092546;28;20551;-57
2023/08/30 08:32:56;;;;;;;5.68;4.82;;;18.70;99.90;;;;;;5090421;28;20082;-54
2023/08/30 08:35:42;;;;;;;8.85;5.43;;;18.60;99.90;;;;;;5062491;28;20031;-55
2023/08/30 08:38:28;;;;;;;7.30;5.55;;;18.90;99.90;;;;;;5091837;28;20024;-54
2023/08/30 08:41:16;;;;;;;6.90;5.22;;;18.90;99.90;;;;;;5091642;28;20393;-52
2023/08/30 08:44:08;;;;;;;8.68;4.47;;;18.80;99.90;;;;;;5062188;28;20511;-49
2023/08/30 08:46:59;;;;;;;4.80;4.18;;;18.90;99.90;;;;;;5090477;28;20459;-54
2023/08/30 08:49:45;;;;;;;6.00;4.25;;;19.00;99.90;;;;;;5091606;28;20392;-51
2023/08/30 08:52:32;;;;;;;6.90;4.10;;;19.00;99.90;;;;;;5090151;28;20463;-52
2023/08/30 08:55:18;;;;;;;8.32;4.70;;;19.00;99.90;;;;;;5091207;28;20133;-53
2023/08/30 08:58:04;;;;;;;6.43;4.90;;;19.10;99.90;;;;;;5091580;28;20032;-51
2023/08/30 09:00:50;;;;;;;7.75;4.72;;;19.30;99.90;;;;;;5090479;28;20032;-55
2023/08/30 09:03:37;;;;;;;7.28;4.40;;;19.30;99.90;;;;;;5090693;28;20043;-53
2023/08/30 09:06:23;;;;;;;6.13;4.07;;;19.50;99.90;;;;;;5075827;28;20039;-55
2023/08/30 09:09:10;;;;;;;6.38;4.63;;;19.40;99.90;;;;;;5091978;28;20042;-52
2023/08/30 09:11:56;;;;;;;5.40;3.92;;;19.50;99.90;;;;;;5091749;28;20024;-54
2023/08/30 09:14:54;;;;;;;5.68;4.47;;;19.60;99.40;;;;;;5091405;28;20118;-56
2023/08/30 09:17:40;;;;;;;7.22;4.72;;;19.80;98.20;;;;;;5075888;28;20569;-49
2023/08/30 09:20:27;;;;;;;6.28;4.38;;;19.90;98.50;;;;;;5091987;28;20093;-52
2023/08/30 09:23:18;;;;;;;8.00;4.25;;;19.80;99.10;;;;;;5075373;28;20024;-49
2023/08/30 09:26:04;;;;;;;6.18;4.30;;;19.90;99.10;;;;;;5090179;28;20047;-53
2023/08/30 09:28:50;;;;;;;6.13;4.07;;;20.00;98.90;;;;;;5078081;28;20031;-52
2023/08/30 09:31:38;;;;;;;5.03;4.55;;;20.10;98.60;;;;;;5093700;28;20040;-50
2023/08/30 09:34:27;;;;;;;4.22;3.80;;;20.10;98.70;;;;;;5093612;28;20392;-53
2023/08/30 09:37:23;;;;;;;7.78;4.10;;;20.30;98.30;;;;;;5094560;28;20028;-51
2023/08/30 09:40:09;;;;;;;4.30;3.90;;;20.40;96.70;;;;;;5093445;28;20504;-52
2023/08/30 09:42:57;;;;;;;4.25;3.20;;;20.00;96.50;;;;;;5094747;28;20024;-50
2023/08/30 09:45:43;;;;;;;4.85;3.55;;;20.10;96.10;;;;;;5094131;28;20532;-51
2023/08/30 09:48:29;;;;;;;6.82;3.40;;;20.00;96.00;;;;;;5093382;28;20036;-53
2023/08/30 09:51:18;;;;;;;4.25;3.05;;;19.80;96.50;;;;;;5093798;28;20396;-50
2023/08/30 09:54:05;;;;;;;4.40;3.15;;;19.90;96.10;;;;;;5078941;28;20051;-46
2023/08/30 09:56:52;;;;;;;4.05;3.17;;;20.00;96.10;;;;;;5094349;28;20098;-55
2023/08/30 09:59:39;;;;;;;6.15;3.33;;;20.10;95.90;;;;;;5094357;28;20039;-49
2023/08/30 10:02:25;;;;;;;3.15;2.72;;;19.90;96.10;;;;;;5093485;28;20032;-53
2023/08/30 10:05:12;;;;;;;6.20;3.08;;;19.90;96.10;;;;;;5093116;28;20051;-50
2023/08/30 10:07:59;;;;;;;4.35;3.20;;;20.10;96.00;;;;;;5094134;28;20028;-52
2023/08/30 10:10:45;;;;;;;4.90;3.13;;;20.20;95.90;;;;;;5093432;28;20767;-51
2023/08/30 10:13:32;;;;;;;4.45;3.85;;;20.30;96.50;;;;;;5096297;28;20028;-49
2023/08/30 10:16:22;;;;;;;5.55;3.85;;;20.30;96.70;;;;;;5093840;28;20404;-60
2023/08/30 10:19:14;;;;;;;6.00;3.72;;;20.10;97.50;;;;;;5094450;28;20507;-49
2023/08/30 10:22:05;;;;;;;9.10;4.03;;;19.90;97.80;;;;;;5095984;28;20493;-56
2023/08/30 10:24:55;;;;;;;4.80;3.53;;;20.10;97.50;;;;;;5093115;28;20027;-52
2023/08/30 10:27:44;;;;;;;4.75;4.05;;;20.10;97.70;;;;;;5093986;28;20074;-53
2023/08/30 10:30:31;;;;;;;4.82;3.67;;;20.30;97.50;;;;;;5093930;28;20024;-52
2023/08/30 10:33:18;;;;;;;5.53;3.33;;;20.30;97.20;;;;;;5079527;28;20024;-53
2023/08/30 10:36:07;;;;;;;3.60;3.30;;;20.30;96.80;;;;;;5094120;28;20031;-47
2023/08/30 10:38:54;;;;;;;4.68;3.28;;;20.40;97.10;;;;;;5093318;28;20028;-53
2023/08/30 10:41:57;;;;;;;6.13;3.28;;;20.40;97.40;;;;;;5092419;28;20051;-51
2023/08/30 10:45:09;;;;;;;6.28;3.60;;;20.50;96.80;;;;;;5092753;28;20035;-51
2023/08/30 10:47:57;;;;;;;6.88;3.72;;;20.60;96.60;;;;;;5093239;28;20427;-48
2023/08/30 10:50:43;;;;;;;5.25;3.53;;;20.90;96.60;;;;;;5093008;28;20035;-49
2023/08/30 10:53:30;;;;;;;8.70;3.92;;;20.90;95.50;;;;;;5077646;28;20058;-46
2023/08/30 10:56:16;;;;;;;6.18;3.63;;;20.90;95.20;;;;;;5077649;28;20024;-49
2023/08/30 10:59:02;;;;;;;6.15;3.70;;;20.90;95.10;;;;;;5093209;28;20119;-51
2023/08/30 11:01:51;;;;;;;4.53;3.65;;;21.00;95.20;;;;;;5078101;28;20404;-54
2023/08/30 11:04:41;;;;;;;6.45;3.58;;;21.30;95.40;;;;;;5077119;28;20077;-55
2023/08/30 11:07:27;;;;;;;5.53;3.65;;;21.40;94.90;;;;;;5091938;28;20031;-53
2023/08/30 11:10:13;;;;;;;3.72;3.25;;;21.30;95.40;;;;;;5091794;28;20024;-53
2023/08/30 11:13:01;;;;;;;3.70;3.13;;;21.30;95.00;;;;;;5091649;28;20050;-55
2023/08/30 11:15:47;;;;;;;3.70;3.10;;;21.50;94.40;;;;;;5092941;28;20028;-55
2023/08/30 11:18:41;;;;;;;3.50;2.95;;;21.50;94.30;;;;;;5091422;28;20028;-53
2023/08/30 11:21:27;;;;;;;3.00;2.70;;;21.60;94.10;;;;;;5091787;28;20024;-52
2023/08/30 11:24:14;;;;;;;3.08;2.60;;;21.60;92.20;;;;;;5092478;28;20043;-54
2023/08/30 11:27:01;;;;;;;3.30;2.60;;;21.50;92.90;;;;;;5090937;28;20063;-49
2023/08/30 11:29:46;;;;;;;4.72;2.67;;;21.50;92.60;;;;;;5092432;28;20082;-51
2023/08/30 11:32:42;;;;;;;3.85;2.60;;;21.60;92.40;;;;;;5092927;28;20028;-51
2023/08/30 11:35:30;;;;;;;3.17;2.55;;;21.30;92.10;;;;;;5091415;28;20524;-55
2023/08/30 11:38:19;;;;;;;4.72;2.83;;;21.10;92.80;;;;;;5091990;28;20469;-50
2023/08/30 11:41:10;;;;;;;4.07;2.70;;;21.10;92.80;;;;;;5076841;28;20028;-53
2023/08/30 11:44:01;;;;;;;5.13;2.80;;;21.20;93.10;;;;;;5076795;28;20056;-53
2023/08/30 11:46:47;;;;;;;4.65;3.03;;;21.20;93.40;;;;;;5081219;28;20028;-48
2023/08/30 11:49:34;;;;;;;4.90;3.05;;;21.50;93.90;;;;;;5070380;28;20154;-55
2023/08/30 11:52:20;;;;;;;3.20;2.90;;;21.90;93.20;;;;;;5056510;28;20028;-52
2023/08/30 11:55:07;;;;;;;4.63;2.90;;;22.10;93.30;;;;;;5071638;28;20032;-51
2023/08/30 11:57:53;;;;;;;3.60;2.78;;;22.10;92.40;;;;;;5071405;28;20131;-53
2023/08/30 12:00:39;;;;;;;3.67;2.63;;;22.20;92.60;;;;;;5071601;28;20025;-53
2023/08/30 12:03:29;;;;;;;5.25;2.90;;;21.80;91.60;;;;;;5056100;28;20031;-52
2023/08/30 12:06:16;;;;;;;5.40;2.83;;;21.80;91.60;;;;;;5071317;28;20392;-55
2023/08/30 12:09:04;;;;;;;3.83;2.70;;;21.70;91.80;;;;;;5071817;28;20021;-53
2023/08/30 12:11:49;;;;;;;3.88;3.15;;;21.70;91.70;;;;;;5071566;28;20037;-53
2023/08/30 12:14:36;;;;;;;3.50;2.53;;;21.90;92.40;;;;;;5071074;28;20064;-53
2023/08/30 12:17:22;;;;;;;15.43;10.57;;;22.00;91.90;;;;;;5070833;28;20025;-51
2023/08/30 12:20:16;;;;;;;6.35;3.05;;;22.10;91.20;;;;;;5071031;28;20103;-53
2023/08/30 12:23:03;;;;;;;6.22;2.72;;;21.90;91.70;;;;;;5071467;28;20040;-52
2023/08/30 12:26:07;;;;;;;3.72;2.90;;;21.90;91.70;;;;;;5071817;28;20086;-51
2023/08/30 12:28:53;;;;;;;3.67;2.70;;;21.80;91.90;;;;;;5056942;28;20021;-48
2023/08/30 12:31:39;;;;;;;5.05;2.70;;;22.30;91.80;;;;;;5070917;28;20115;-48
2023/08/30 12:34:25;;;;;;;3.45;2.80;;;22.50;91.70;;;;;;5071151;28;20039;-56
2023/08/30 12:37:11;;;;;;;6.35;2.90;;;22.60;91.50;;;;;;5070967;28;20485;-50
2023/08/30 12:39:56;;;;;;;4.68;2.70;;;22.60;91.00;;;;;;5070648;28;20543;-52
2023/08/30 12:42:42;;;;;;;3.25;2.95;;;22.50;90.70;;;;;;5071205;28;20025;-48
2023/08/30 12:45:28;;;;;;;5.00;2.83;;;22.30;89.80;;;;;;5077877;28;20454;-53
2023/08/30 12:48:16;;;;;;;4.28;3.03;;;22.40;90.80;;;;;;5079650;28;20342;-54
2023/08/30 12:51:03;;;;;;;4.93;2.45;;;22.30;90.60;;;;;;5079509;28;20020;-53
2023/08/30 12:53:49;;;;;;;5.40;2.85;;;22.50;89.90;;;;;;5070541;28;20549;-50
2023/08/30 12:56:35;;;;;;;4.78;2.90;;;22.50;89.60;;;;;;5075730;28;20436;-54
2023/08/30 12:59:21;;;;;;;4.43;2.60;;;22.50;90.10;;;;;;5091223;28;20024;-54
2023/08/30 13:02:08;;;;;;;3.15;2.63;;;22.40;90.30;;;;;;5091331;28;20032;-53
2023/08/30 13:04:54;;;;;;;2.97;2.58;;;22.70;89.40;;;;;;5094379;28;20032;-52
2023/08/30 13:07:40;;;;;;;3.45;2.72;;;23.00;89.80;;;;;;5094946;28;20512;-52
2023/08/30 13:10:26;;;;;;;2.80;2.50;;;23.30;89.30;;;;;;5069724;28;20401;-52
2023/08/30 13:13:13;;;;;;;3.55;2.80;;;23.60;89.70;;;;;;5082026;28;20024;-53
2023/08/30 13:15:59;;;;;;;3.20;2.90;;;23.90;88.50;;;;;;5081976;28;20043;-52
2023/08/30 13:18:45;;;;;;;3.90;3.10;;;23.50;87.70;;;;;;5074204;28;20032;-54
2023/08/30 13:21:34;;;;;;;5.15;2.97;;;22.90;89.70;;;;;;5082505;28;20032;-53
2023/08/30 13:24:20;;;;;;;4.72;3.35;;;22.70;90.10;;;;;;5086267;28;20086;-55
2023/08/30 13:27:06;;;;;;;5.22;3.35;;;22.60;90.60;;;;;;5093268;28;20032;-55
2023/08/30 13:29:52;;;;;;;5.32;3.72;;;22.70;90.50;;;;;;5094415;28;20464;-54
2023/08/30 13:32:38;;;;;;;7.45;3.58;;;22.50;90.70;;;;;;5094182;28;20484;-55
2023/08/30 13:35:23;;;;;;;4.93;3.10;;;22.50;90.80;;;;;;5079276;28;20028;-54
2023/08/30 13:38:09;;;;;;;4.43;3.50;;;22.60;91.20;;;;;;5094402;28;20073;-56
2023/08/30 13:41:05;;;;;;;5.70;3.30;;;22.80;90.60;;;;;;5092959;28;20034;-56
2023/08/30 13:43:50;;;;;;;6.68;3.60;;;23.30;90.60;;;;;;5094083;28;20028;-50
2023/08/30 13:46:36;;;;;;;4.38;3.80;;;23.70;89.30;;;;;;5094263;28;20411;-50
2023/08/30 13:49:22;;;;;;;5.88;3.30;;;23.70;89.30;;;;;;5094230;28;20056;-56
2023/08/30 13:52:08;;;;;;;5.25;3.65;;;23.70;89.80;;;;;;5093027;28;20080;-54
2023/08/30 13:54:54;;;;;;;4.43;3.38;;;23.90;88.80;;;;;;5095511;27;20024;-53
2023/08/30 13:57:40;;;;;;;4.10;3.53;;;24.10;89.20;;;;;;5094132;28;20089;-55
2023/08/30 14:00:26;;;;;;;7.25;3.80;;;23.80;88.80;;;;;;5079237;28;20060;-51
2023/08/30 14:03:12;;;;;;;4.78;3.67;;;24.00;88.00;;;;;;5094357;28;20069;-56
2023/08/30 14:05:58;;;;;;;4.35;3.75;;;24.10;88.40;;;;;;5094362;28;20536;-51
2023/08/30 14:08:44;;;;;;;5.95;3.95;;;23.80;88.40;;;;;;5093514;28;20039;-53
2023/08/30 14:11:30;;;;;;;4.60;3.72;;;23.30;89.50;;;;;;5094384;28;20119;-52
2023/08/30 14:14:16;;;;;;;6.25;3.95;;;22.90;90.30;;;;;;5094414;28;20028;-51
2023/08/30 14:17:02;;;;;;;4.85;3.88;;;22.70;90.70;;;;;;5092504;28;20046;-51
2023/08/30 14:19:48;;;;;;;6.35;3.97;;;22.60;90.70;;;;;;5094072;28;20435;-56
2023/08/30 14:22:34;;;;;;;6.15;3.78;;;22.70;91.00;;;;;;5093971;28;20476;-52
2023/08/30 14:25:20;;;;;;;7.32;3.50;;;22.70;90.90;;;;;;5093540;28;20050;-52